sensor_id;sensor_type;location;lat;lon;timestamp;pressure;altitude;pressure_sealevel;temperature;humidity
84028;BME280;74111;45.650;25.612;2024-03-23T00:54:48;94858.97;;;4.94;56.47
84028;BME280;74111;45.650;25.612;2024-03-23T00:57:16;94854.44;;;4.94;56.21
84028;BME280;74111;45.650;25.612;2024-03-23T00:59:45;94861.46;;;4.91;56.11
84028;BME280;74111;45.650;25.612;2024-03-23T01:02:15;94856.72;;;4.89;57.21
84028;BME280;74111;45.650;25.612;2024-03-23T01:04:44;94855.73;;;4.85;57.85
84028;BME280;74111;45.650;25.612;2024-03-23T01:07:13;94856.00;;;4.80;58.31
84028;BME280;74111;45.650;25.612;2024-03-23T01:09:44;94857.38;;;4.76;58.65
84028;BME280;74111;45.650;25.612;2024-03-23T01:12:13;94857.07;;;4.70;58.35
84028;BME280;74111;45.650;25.612;2024-03-23T01:14:42;94854.23;;;4.67;57.80
84028;BME280;74111;45.650;25.612;2024-03-23T01:17:11;94857.02;;;4.66;57.89
84028;BME280;74111;45.650;25.612;2024-03-23T01:19:42;94856.70;;;4.66;57.64
84028;BME280;74111;45.650;25.612;2024-03-23T01:22:12;94857.61;;;4.64;57.76
84028;BME280;74111;45.650;25.612;2024-03-23T01:24:40;94857.60;;;4.64;58.20
84028;BME280;74111;45.650;25.612;2024-03-23T01:27:09;94857.15;;;4.60;57.91
84028;BME280;74111;45.650;25.612;2024-03-23T01:29:40;94858.04;;;4.59;57.99
84028;BME280;74111;45.650;25.612;2024-03-23T01:32:09;94865.11;;;4.60;57.46
84028;BME280;74111;45.650;25.612;2024-03-23T01:34:38;94867.11;;;4.61;57.72
84028;BME280;74111;45.650;25.612;2024-03-23T01:37:09;94866.42;;;4.64;56.89
84028;BME280;74111;45.650;25.612;2024-03-23T01:39:37;94864.36;;;4.65;57.25
84028;BME280;74111;45.650;25.612;2024-03-23T01:42:07;94863.83;;;4.64;57.20
84028;BME280;74111;45.650;25.612;2024-03-23T01:44:37;94862.98;;;4.64;57.16
84028;BME280;74111;45.650;25.612;2024-03-23T01:47:07;94862.58;;;4.63;57.78
84028;BME280;74111;45.650;25.612;2024-03-23T01:49:35;94861.41;;;4.60;58.12
84028;BME280;74111;45.650;25.612;2024-03-23T01:52:04;94861.21;;;4.57;57.37
84028;BME280;74111;45.650;25.612;2024-03-23T01:54:33;94860.58;;;4.54;57.24
84028;BME280;74111;45.650;25.612;2024-03-23T01:57:03;94859.47;;;4.54;58.06
84028;BME280;74111;45.650;25.612;2024-03-23T01:59:34;94856.93;;;4.52;58.80
84028;BME280;74111;45.650;25.612;2024-03-23T02:02:03;94855.36;;;4.50;58.26
84028;BME280;74111;45.650;25.612;2024-03-23T02:04:34;94854.83;;;4.45;58.66
84028;BME280;74111;45.650;25.612;2024-03-23T02:07:03;94855.73;;;4.40;58.75
84028;BME280;74111;45.650;25.612;2024-03-23T02:09:35;94854.64;;;4.37;59.03
84028;BME280;74111;45.650;25.612;2024-03-23T02:12:03;94849.79;;;4.37;58.66
84028;BME280;74111;45.650;25.612;2024-03-23T02:14:33;94852.21;;;4.37;58.17
84028;BME280;74111;45.650;25.612;2024-03-23T02:17:04;94850.95;;;4.37;58.49
84028;BME280;74111;45.650;25.612;2024-03-23T02:19:33;94850.73;;;4.35;57.96
84028;BME280;74111;45.650;25.612;2024-03-23T02:22:03;94853.79;;;4.33;58.98
84028;BME280;74111;45.650;25.612;2024-03-23T02:24:32;94851.67;;;4.29;59.31
84028;BME280;74111;45.650;25.612;2024-03-23T02:27:06;94850.52;;;4.25;59.75
84028;BME280;74111;45.650;25.612;2024-03-23T02:29:35;94850.36;;;4.20;59.88
84028;BME280;74111;45.650;25.612;2024-03-23T02:32:04;94848.52;;;4.15;59.85
84028;BME280;74111;45.650;25.612;2024-03-23T02:34:34;94847.77;;;4.09;59.50
84028;BME280;74111;45.650;25.612;2024-03-23T02:37:10;94847.63;;;4.05;59.57
84028;BME280;74111;45.650;25.612;2024-03-23T02:39:39;94847.63;;;4.05;60.03
84028;BME280;74111;45.650;25.612;2024-03-23T02:42:09;94852.30;;;4.06;59.44
84028;BME280;74111;45.650;25.612;2024-03-23T02:44:38;94847.40;;;4.08;60.09
84028;BME280;74111;45.650;25.612;2024-03-23T02:47:06;94848.19;;;4.08;60.37
84028;BME280;74111;45.650;25.612;2024-03-23T02:49:35;94849.73;;;4.06;60.52
84028;BME280;74111;45.650;25.612;2024-03-23T02:52:04;94843.88;;;4.03;60.51
84028;BME280;74111;45.650;25.612;2024-03-23T02:54:33;94841.71;;;3.99;60.70
84028;BME280;74111;45.650;25.612;2024-03-23T02:57:03;94847.45;;;3.95;60.46
84028;BME280;74111;45.650;25.612;2024-03-23T02:59:32;94843.77;;;3.92;60.78
84028;BME280;74111;45.650;25.612;2024-03-23T03:02:02;94843.34;;;3.90;60.50
84028;BME280;74111;45.650;25.612;2024-03-23T03:04:34;94838.23;;;3.88;60.64
84028;BME280;74111;45.650;25.612;2024-03-23T03:07:03;94838.92;;;3.87;61.52
84028;BME280;74111;45.650;25.612;2024-03-23T03:09:33;94837.28;;;3.85;61.57
84028;BME280;74111;45.650;25.612;2024-03-23T03:12:04;94837.95;;;3.83;61.15
84028;BME280;74111;45.650;25.612;2024-03-23T03:14:34;94837.22;;;3.83;60.66
84028;BME280;74111;45.650;25.612;2024-03-23T03:17:04;94837.58;;;3.84;61.22
84028;BME280;74111;45.650;25.612;2024-03-23T03:19:33;94837.76;;;3.85;61.29
84028;BME280;74111;45.650;25.612;2024-03-23T03:22:03;94839.86;;;3.86;61.43
84028;BME280;74111;45.650;25.612;2024-03-23T03:24:32;94835.81;;;3.87;61.62
84028;BME280;74111;45.650;25.612;2024-03-23T03:27:01;94836.13;;;3.86;61.65
84028;BME280;74111;45.650;25.612;2024-03-23T03:29:32;94836.21;;;3.83;61.45
84028;BME280;74111;45.650;25.612;2024-03-23T03:32:04;94832.96;;;3.80;61.67
84028;BME280;74111;45.650;25.612;2024-03-23T03:34:35;94832.05;;;3.75;61.98
84028;BME280;74111;45.650;25.612;2024-03-23T03:37:06;94831.51;;;3.70;61.76
84028;BME280;74111;45.650;25.612;2024-03-23T03:39:35;94836.52;;;3.69;61.91
84028;BME280;74111;45.650;25.612;2024-03-23T03:42:04;94833.50;;;3.65;62.37
84028;BME280;74111;45.650;25.612;2024-03-23T03:44:37;94833.70;;;3.60;62.35
84028;BME280;74111;45.650;25.612;2024-03-23T03:47:06;94830.23;;;3.57;62.33
84028;BME280;74111;45.650;25.612;2024-03-23T03:49:34;94834.34;;;3.55;62.05
84028;BME280;74111;45.650;25.612;2024-03-23T03:52:04;94831.22;;;3.54;62.14
84028;BME280;74111;45.650;25.612;2024-03-23T03:54:33;94835.00;;;3.49;61.78
84028;BME280;74111;45.650;25.612;2024-03-23T03:57:01;94833.61;;;3.45;61.93
84028;BME280;74111;45.650;25.612;2024-03-23T03:59:30;94828.04;;;3.43;62.11
84028;BME280;74111;45.650;25.612;2024-03-23T04:01:59;94831.02;;;3.40;62.85
84028;BME280;74111;45.650;25.612;2024-03-23T04:04:28;94827.44;;;3.36;62.13
84028;BME280;74111;45.650;25.612;2024-03-23T04:07:02;94830.15;;;3.31;62.65
84028;BME280;74111;45.650;25.612;2024-03-23T04:09:30;94828.52;;;3.25;62.72
84028;BME280;74111;45.650;25.612;2024-03-23T04:11:59;94827.22;;;3.21;62.75
84028;BME280;74111;45.650;25.612;2024-03-23T04:14:29;94824.75;;;3.18;62.86
84028;BME280;74111;45.650;25.612;2024-03-23T04:16:58;94820.16;;;3.16;63.05
84028;BME280;74111;45.650;25.612;2024-03-23T04:19:29;94815.52;;;3.15;63.51
84028;BME280;74111;45.650;25.612;2024-03-23T04:22:00;94813.21;;;3.13;63.05
84028;BME280;74111;45.650;25.612;2024-03-23T04:24:29;94809.20;;;3.14;62.70
84028;BME280;74111;45.650;25.612;2024-03-23T04:26:58;94809.29;;;3.19;62.10
84028;BME280;74111;45.650;25.612;2024-03-23T04:29:27;94809.23;;;3.25;62.54
84028;BME280;74111;45.650;25.612;2024-03-23T04:31:56;94809.83;;;3.27;62.81
84028;BME280;74111;45.650;25.612;2024-03-23T04:34:26;94811.09;;;3.30;62.80
84028;BME280;74111;45.650;25.612;2024-03-23T04:36:55;94806.27;;;3.30;62.75
84028;BME280;74111;45.650;25.612;2024-03-23T04:39:24;94807.36;;;3.32;62.60
84028;BME280;74111;45.650;25.612;2024-03-23T04:41:52;94802.69;;;3.32;62.49
84028;BME280;74111;45.650;25.612;2024-03-23T04:44:21;94805.55;;;3.37;62.78
84028;BME280;74111;45.650;25.612;2024-03-23T04:46:50;94806.91;;;3.40;62.94
84028;BME280;74111;45.650;25.612;2024-03-23T04:49:19;94811.38;;;3.39;62.97
84028;BME280;74111;45.650;25.612;2024-03-23T04:51:48;94807.48;;;3.38;63.84
84028;BME280;74111;45.650;25.612;2024-03-23T04:54:19;94805.64;;;3.39;63.36
84028;BME280;74111;45.650;25.612;2024-03-23T04:56:51;94808.08;;;3.41;63.65
84028;BME280;74111;45.650;25.612;2024-03-23T04:59:19;94807.30;;;3.43;63.61
84028;BME280;74111;45.650;25.612;2024-03-23T05:01:50;94808.02;;;3.42;63.21
84028;BME280;74111;45.650;25.612;2024-03-23T05:04:19;94805.61;;;3.42;63.02
84028;BME280;74111;45.650;25.612;2024-03-23T05:06:48;94806.98;;;3.42;63.44
84028;BME280;74111;45.650;25.612;2024-03-23T05:09:19;94805.33;;;3.41;63.88
84028;BME280;74111;45.650;25.612;2024-03-23T05:11:49;94802.33;;;3.41;63.44
84028;BME280;74111;45.650;25.612;2024-03-23T05:14:18;94805.35;;;3.43;63.98
84028;BME280;74111;45.650;25.612;2024-03-23T05:16:47;94799.34;;;3.44;63.46
84028;BME280;74111;45.650;25.612;2024-03-23T05:19:16;94800.52;;;3.48;63.52
84028;BME280;74111;45.650;25.612;2024-03-23T05:21:45;94802.98;;;3.52;63.73
84028;BME280;74111;45.650;25.612;2024-03-23T05:24:14;94804.95;;;3.56;63.62
84028;BME280;74111;45.650;25.612;2024-03-23T05:26:43;94803.80;;;3.60;63.46
84028;BME280;74111;45.650;25.612;2024-03-23T05:29:12;94804.70;;;3.66;63.55
84028;BME280;74111;45.650;25.612;2024-03-23T05:31:41;94798.85;;;3.71;63.02
84028;BME280;74111;45.650;25.612;2024-03-23T05:34:11;94798.96;;;3.77;63.25
84028;BME280;74111;45.650;25.612;2024-03-23T05:36:40;94794.80;;;3.83;62.93
84028;BME280;74111;45.650;25.612;2024-03-23T05:39:09;94792.86;;;3.89;62.99
84028;BME280;74111;45.650;25.612;2024-03-23T05:41:37;94791.60;;;3.94;63.07
84028;BME280;74111;45.650;25.612;2024-03-23T05:44:07;94789.23;;;3.98;63.01
84028;BME280;74111;45.650;25.612;2024-03-23T05:46:39;94788.23;;;4.04;62.26
84028;BME280;74111;45.650;25.612;2024-03-23T05:49:08;94785.91;;;4.15;62.35
84028;BME280;74111;45.650;25.612;2024-03-23T05:51:37;94785.30;;;4.21;62.13
84028;BME280;74111;45.650;25.612;2024-03-23T05:54:05;94787.26;;;4.26;61.97
84028;BME280;74111;45.650;25.612;2024-03-23T05:56:34;94783.26;;;4.33;61.68
84028;BME280;74111;45.650;25.612;2024-03-23T05:59:03;94786.55;;;4.45;61.81
84028;BME280;74111;45.650;25.612;2024-03-23T06:01:33;94785.95;;;4.53;61.86
84028;BME280;74111;45.650;25.612;2024-03-23T06:04:03;94786.45;;;4.64;61.38
84028;BME280;74111;45.650;25.612;2024-03-23T06:06:33;94788.69;;;4.74;61.51
84028;BME280;74111;45.650;25.612;2024-03-23T06:09:02;94791.87;;;4.82;61.55
84028;BME280;74111;45.650;25.612;2024-03-23T06:11:31;94789.48;;;4.88;61.02
84028;BME280;74111;45.650;25.612;2024-03-23T06:14:00;94794.54;;;4.94;60.66
84028;BME280;74111;45.650;25.612;2024-03-23T06:16:30;94801.65;;;4.98;60.60
84028;BME280;74111;45.650;25.612;2024-03-23T06:18:59;94805.70;;;5.04;60.58
84028;BME280;74111;45.650;25.612;2024-03-23T06:21:28;94809.30;;;5.10;60.41
84028;BME280;74111;45.650;25.612;2024-03-23T06:23:57;94809.12;;;5.18;60.12
84028;BME280;74111;45.650;25.612;2024-03-23T06:26:27;94810.77;;;5.26;60.47
84028;BME280;74111;45.650;25.612;2024-03-23T06:28:55;94811.20;;;5.35;59.64
84028;BME280;74111;45.650;25.612;2024-03-23T06:31:24;94807.72;;;5.44;59.52
84028;BME280;74111;45.650;25.612;2024-03-23T06:33:55;94810.81;;;5.50;59.42
84028;BME280;74111;45.650;25.612;2024-03-23T06:36:24;94809.42;;;5.51;59.08
84028;BME280;74111;45.650;25.612;2024-03-23T06:38:53;94812.91;;;5.53;58.89
84028;BME280;74111;45.650;25.612;2024-03-23T06:41:23;94812.69;;;5.54;58.87
84028;BME280;74111;45.650;25.612;2024-03-23T06:43:55;94808.59;;;5.59;59.14
84028;BME280;74111;45.650;25.612;2024-03-23T06:46:24;94812.10;;;5.63;58.43
84028;BME280;74111;45.650;25.612;2024-03-23T06:48:53;94808.51;;;5.72;58.49
84028;BME280;74111;45.650;25.612;2024-03-23T06:51:21;94809.11;;;5.86;58.52
84028;BME280;74111;45.650;25.612;2024-03-23T06:53:50;94807.87;;;6.01;58.21
84028;BME280;74111;45.650;25.612;2024-03-23T06:56:19;94804.02;;;6.13;58.15
84028;BME280;74111;45.650;25.612;2024-03-23T06:58:48;94803.20;;;6.27;58.35
84028;BME280;74111;45.650;25.612;2024-03-23T07:01:21;94800.54;;;6.42;58.01
84028;BME280;74111;45.650;25.612;2024-03-23T07:03:50;94798.27;;;6.54;57.35
84028;BME280;74111;45.650;25.612;2024-03-23T07:06:19;94795.75;;;6.62;57.37
84028;BME280;74111;45.650;25.612;2024-03-23T07:08:52;94799.68;;;6.75;57.11
84028;BME280;74111;45.650;25.612;2024-03-23T07:11:22;94799.09;;;6.88;56.97
84028;BME280;74111;45.650;25.612;2024-03-23T07:13:53;94793.57;;;6.97;56.06
84028;BME280;74111;45.650;25.612;2024-03-23T07:16:26;94789.11;;;7.08;56.63
84028;BME280;74111;45.650;25.612;2024-03-23T07:18:56;94787.95;;;7.20;56.51
84028;BME280;74111;45.650;25.612;2024-03-23T07:21:24;94787.33;;;7.32;56.55
84028;BME280;74111;45.650;25.612;2024-03-23T07:23:53;94785.41;;;7.45;56.39
84028;BME280;74111;45.650;25.612;2024-03-23T07:26:22;94789.70;;;7.56;55.92
84028;BME280;74111;45.650;25.612;2024-03-23T07:28:51;94786.80;;;7.67;56.20
84028;BME280;74111;45.650;25.612;2024-03-23T07:31:22;94789.73;;;7.77;55.43
84028;BME280;74111;45.650;25.612;2024-03-23T07:33:51;94785.33;;;7.89;55.51
84028;BME280;74111;45.650;25.612;2024-03-23T07:36:20;94785.05;;;8.02;55.69
84028;BME280;74111;45.650;25.612;2024-03-23T07:38:50;94786.35;;;8.14;55.53
84028;BME280;74111;45.650;25.612;2024-03-23T07:41:27;94786.71;;;8.28;55.71
84028;BME280;74111;45.650;25.612;2024-03-23T07:43:56;94786.54;;;8.43;55.33
84028;BME280;74111;45.650;25.612;2024-03-23T07:46:25;94786.55;;;8.55;54.52
84028;BME280;74111;45.650;25.612;2024-03-23T07:48:55;94785.41;;;8.66;54.25
84028;BME280;74111;45.650;25.612;2024-03-23T07:51:25;94783.59;;;8.78;54.48
84028;BME280;74111;45.650;25.612;2024-03-23T07:53:54;94782.10;;;8.86;54.10
84028;BME280;74111;45.650;25.612;2024-03-23T07:56:23;94781.02;;;8.96;54.35
84028;BME280;74111;45.650;25.612;2024-03-23T07:58:52;94778.39;;;9.08;54.19
84028;BME280;74111;45.650;25.612;2024-03-23T08:01:21;94774.79;;;9.21;54.23
84028;BME280;74111;45.650;25.612;2024-03-23T08:03:49;94774.98;;;9.33;54.02
84028;BME280;74111;45.650;25.612;2024-03-23T08:06:20;94773.63;;;9.44;54.23
84028;BME280;74111;45.650;25.612;2024-03-23T08:08:55;94775.17;;;9.56;53.78
84028;BME280;74111;45.650;25.612;2024-03-23T08:11:31;94772.96;;;9.67;53.30
84028;BME280;74111;45.650;25.612;2024-03-23T08:14:02;94770.77;;;9.78;53.03
84028;BME280;74111;45.650;25.612;2024-03-23T08:16:33;94766.02;;;9.89;52.75
84028;BME280;74111;45.650;25.612;2024-03-23T08:19:02;94765.16;;;10.02;52.33
84028;BME280;74111;45.650;25.612;2024-03-23T08:21:32;94765.48;;;10.12;51.45
84028;BME280;74111;45.650;25.612;2024-03-23T08:24:01;94765.48;;;10.22;51.04
84028;BME280;74111;45.650;25.612;2024-03-23T08:26:31;94765.90;;;10.34;51.54
84028;BME280;74111;45.650;25.612;2024-03-23T08:29:00;94761.81;;;10.46;51.10
84028;BME280;74111;45.650;25.612;2024-03-23T08:31:29;94753.58;;;10.60;51.00
84028;BME280;74111;45.650;25.612;2024-03-23T08:33:58;94755.17;;;10.76;50.81
84028;BME280;74111;45.650;25.612;2024-03-23T08:36:27;94755.80;;;10.87;50.11
84028;BME280;74111;45.650;25.612;2024-03-23T08:38:56;94753.55;;;10.97;50.78
84028;BME280;74111;45.650;25.612;2024-03-23T08:41:25;94747.18;;;11.10;50.57
84028;BME280;74111;45.650;25.612;2024-03-23T08:43:55;94749.79;;;11.21;50.14
84028;BME280;74111;45.650;25.612;2024-03-23T08:46:25;94744.67;;;11.32;49.05
84028;BME280;74111;45.650;25.612;2024-03-23T08:48:55;94741.09;;;11.47;49.33
84028;BME280;74111;45.650;25.612;2024-03-23T08:51:23;94739.03;;;11.63;48.63
84028;BME280;74111;45.650;25.612;2024-03-23T08:53:53;94731.89;;;11.77;48.02
84028;BME280;74111;45.650;25.612;2024-03-23T08:56:22;94732.70;;;11.91;47.66
84028;BME280;74111;45.650;25.612;2024-03-23T08:58:52;94729.70;;;12.07;47.28
84028;BME280;74111;45.650;25.612;2024-03-23T09:01:22;94724.87;;;12.22;47.61
84028;BME280;74111;45.650;25.612;2024-03-23T09:03:52;94724.95;;;12.42;47.33
84028;BME280;74111;45.650;25.612;2024-03-23T09:06:21;94720.65;;;12.60;46.87
84028;BME280;74111;45.650;25.612;2024-03-23T09:08:50;94717.73;;;12.79;45.93
84028;BME280;74111;45.650;25.612;2024-03-23T09:11:19;94712.78;;;12.96;45.34
84028;BME280;74111;45.650;25.612;2024-03-23T09:13:48;94710.64;;;13.15;45.83
84028;BME280;74111;45.650;25.612;2024-03-23T09:16:18;94708.58;;;13.37;43.15
84028;BME280;74111;45.650;25.612;2024-03-23T09:18:48;94703.89;;;13.59;43.15
84028;BME280;74111;45.650;25.612;2024-03-23T09:21:17;94700.19;;;13.77;41.49
84028;BME280;74111;45.650;25.612;2024-03-23T09:23:47;94695.48;;;13.98;41.12
84028;BME280;74111;45.650;25.612;2024-03-23T09:26:17;94692.70;;;14.15;41.37
84028;BME280;74111;45.650;25.612;2024-03-23T09:28:48;94691.13;;;14.31;41.19
84028;BME280;74111;45.650;25.612;2024-03-23T09:31:18;94687.38;;;14.51;40.31
84028;BME280;74111;45.650;25.612;2024-03-23T09:33:46;94687.98;;;14.67;39.82
84028;BME280;74111;45.650;25.612;2024-03-23T09:36:15;94683.35;;;14.77;38.77
84028;BME280;74111;45.650;25.612;2024-03-23T09:38:44;94679.58;;;14.97;38.90
84028;BME280;74111;45.650;25.612;2024-03-23T09:41:14;94672.05;;;15.21;38.79
84028;BME280;74111;45.650;25.612;2024-03-23T09:43:44;94665.48;;;15.47;37.76
84028;BME280;74111;45.650;25.612;2024-03-23T09:46:16;94660.73;;;15.66;35.86
84028;BME280;74111;45.650;25.612;2024-03-23T09:48:46;94658.17;;;15.89;36.58
84028;BME280;74111;45.650;25.612;2024-03-23T09:51:15;94655.81;;;16.16;36.74
84028;BME280;74111;45.650;25.612;2024-03-23T09:53:46;94651.52;;;16.40;36.86
84028;BME280;74111;45.650;25.612;2024-03-23T09:56:15;94652.55;;;16.69;36.39
84028;BME280;74111;45.650;25.612;2024-03-23T09:58:45;94651.61;;;17.00;36.38
84028;BME280;74111;45.650;25.612;2024-03-23T10:01:14;94646.84;;;17.30;35.43
84028;BME280;74111;45.650;25.612;2024-03-23T10:03:47;94650.15;;;17.59;35.26
84028;BME280;74111;45.650;25.612;2024-03-23T10:06:21;94648.68;;;17.88;34.59
84028;BME280;74111;45.650;25.612;2024-03-23T10:08:51;94645.40;;;18.10;32.54
84028;BME280;74111;45.650;25.612;2024-03-23T10:11:21;94641.70;;;18.26;31.40
84028;BME280;74111;45.650;25.612;2024-03-23T10:13:49;94635.06;;;18.52;31.27
84028;BME280;74111;45.650;25.612;2024-03-23T10:16:23;94633.81;;;18.82;31.81
84028;BME280;74111;45.650;25.612;2024-03-23T10:18:52;94630.67;;;19.09;30.15
84028;BME280;74111;45.650;25.612;2024-03-23T10:21:21;94620.73;;;19.31;28.92
84028;BME280;74111;45.650;25.612;2024-03-23T10:23:49;94610.02;;;19.56;30.73
84028;BME280;74111;45.650;25.612;2024-03-23T10:26:25;94607.00;;;19.84;30.92
84028;BME280;74111;45.650;25.612;2024-03-23T10:29:01;94607.03;;;20.16;28.60
84028;BME280;74111;45.650;25.612;2024-03-23T10:31:33;94601.41;;;20.26;26.74
84028;BME280;74111;45.650;25.612;2024-03-23T10:34:04;94593.87;;;20.37;27.66
84028;BME280;74111;45.650;25.612;2024-03-23T10:36:34;94592.48;;;20.51;28.07
84028;BME280;74111;45.650;25.612;2024-03-23T10:39:05;94590.19;;;20.74;29.06
84028;BME280;74111;45.650;25.612;2024-03-23T10:41:37;94584.81;;;21.01;27.00
84028;BME280;74111;45.650;25.612;2024-03-23T10:44:08;94577.09;;;21.27;27.05
84028;BME280;74111;45.650;25.612;2024-03-23T10:46:37;94574.81;;;21.48;25.80
84028;BME280;74111;45.650;25.612;2024-03-23T10:49:06;94570.98;;;21.73;26.47
84028;BME280;74111;45.650;25.612;2024-03-23T10:51:35;94566.95;;;22.02;26.33
84028;BME280;74111;45.650;25.612;2024-03-23T10:54:04;94560.83;;;22.31;25.13
84028;BME280;74111;45.650;25.612;2024-03-23T10:56:36;94560.23;;;22.56;25.21
84028;BME280;74111;45.650;25.612;2024-03-23T10:59:07;94552.16;;;22.54;23.82
84028;BME280;74111;45.650;25.612;2024-03-23T11:01:54;94545.25;;;22.66;23.49
84028;BME280;74111;45.650;25.612;2024-03-23T11:04:35;94542.77;;;22.96;23.87
84028;BME280;74111;45.650;25.612;2024-03-23T11:07:30;94534.09;;;23.27;25.44
84028;BME280;74111;45.650;25.612;2024-03-23T11:10:00;94531.23;;;23.67;24.22
84028;BME280;74111;45.650;25.612;2024-03-23T11:12:31;94525.95;;;24.14;24.35
84028;BME280;74111;45.650;25.612;2024-03-23T11:15:10;94522.48;;;24.72;21.20
84028;BME280;74111;45.650;25.612;2024-03-23T11:17:40;94519.78;;;25.48;22.60
84028;BME280;74111;45.650;25.612;2024-03-23T11:20:11;94519.81;;;26.14;20.14
84028;BME280;74111;45.650;25.612;2024-03-23T11:22:42;94514.84;;;26.70;19.35
84028;BME280;74111;45.650;25.612;2024-03-23T11:25:18;94517.53;;;27.35;18.09
84028;BME280;74111;45.650;25.612;2024-03-23T11:27:52;94508.69;;;27.55;17.13
84028;BME280;74111;45.650;25.612;2024-03-23T11:30:25;94504.36;;;27.95;18.08
84028;BME280;74111;45.650;25.612;2024-03-23T11:32:55;94507.02;;;28.45;17.64
84028;BME280;74111;45.650;25.612;2024-03-23T11:38:14;94495.20;;;28.89;16.26
84028;BME280;74111;45.650;25.612;2024-03-23T11:40:46;94491.93;;;29.31;15.77
84028;BME280;74111;45.650;25.612;2024-03-23T11:43:17;94487.30;;;29.90;15.99
84028;BME280;74111;45.650;25.612;2024-03-23T11:45:51;94487.14;;;30.30;16.27
84028;BME280;74111;45.650;25.612;2024-03-23T11:48:23;94480.03;;;30.39;15.09
84028;BME280;74111;45.650;25.612;2024-03-23T11:50:55;94474.60;;;30.42;14.87
84028;BME280;74111;45.650;25.612;2024-03-23T11:53:26;94468.47;;;30.76;15.52
84028;BME280;74111;45.650;25.612;2024-03-23T11:55:57;94467.25;;;31.18;14.46
84028;BME280;74111;45.650;25.612;2024-03-23T11:58:27;94462.55;;;31.45;13.56
84028;BME280;74111;45.650;25.612;2024-03-23T12:00:58;94460.11;;;31.86;14.49
84028;BME280;74111;45.650;25.612;2024-03-23T12:03:28;94453.86;;;32.10;14.19
84028;BME280;74111;45.650;25.612;2024-03-23T12:06:00;94450.30;;;32.40;14.40
84028;BME280;74111;45.650;25.612;2024-03-23T12:08:35;94442.72;;;32.13;12.96
84028;BME280;74111;45.650;25.612;2024-03-23T12:11:11;94435.09;;;31.94;12.88
84028;BME280;74111;45.650;25.612;2024-03-23T12:13:44;94434.14;;;32.01;13.37
84028;BME280;74111;45.650;25.612;2024-03-23T12:16:18;94428.57;;;31.71;13.51
84028;BME280;74111;45.650;25.612;2024-03-23T12:18:50;94427.29;;;32.01;13.50
84028;BME280;74111;45.650;25.612;2024-03-23T12:21:22;94422.14;;;32.06;13.65
84028;BME280;74111;45.650;25.612;2024-03-23T12:23:52;94414.95;;;32.35;13.79
84028;BME280;74111;45.650;25.612;2024-03-23T12:26:21;94414.84;;;32.68;13.48
84028;BME280;74111;45.650;25.612;2024-03-23T12:28:51;94406.75;;;32.97;13.65
84028;BME280;74111;45.650;25.612;2024-03-23T12:31:21;94407.20;;;33.26;12.46
84028;BME280;74111;45.650;25.612;2024-03-23T12:33:49;94404.75;;;33.16;12.59
84028;BME280;74111;45.650;25.612;2024-03-23T12:36:18;94405.50;;;33.35;13.32
84028;BME280;74111;45.650;25.612;2024-03-23T12:38:47;94400.59;;;33.43;11.95
84028;BME280;74111;45.650;25.612;2024-03-23T12:41:15;94401.11;;;33.17;12.21
84028;BME280;74111;45.650;25.612;2024-03-23T12:43:44;94393.20;;;32.86;12.82
84028;BME280;74111;45.650;25.612;2024-03-23T12:46:12;94385.66;;;32.88;12.76
84028;BME280;74111;45.650;25.612;2024-03-23T12:48:40;94386.91;;;32.69;12.62
84028;BME280;74111;45.650;25.612;2024-03-23T12:51:11;94382.79;;;32.92;13.14
84028;BME280;74111;45.650;25.612;2024-03-23T12:53:40;94382.36;;;33.06;12.69
84028;BME280;74111;45.650;25.612;2024-03-23T12:56:12;94380.23;;;33.36;13.54
84028;BME280;74111;45.650;25.612;2024-03-23T12:58:45;94376.42;;;33.44;12.81
84028;BME280;74111;45.650;25.612;2024-03-23T13:01:20;94372.52;;;33.62;12.95
84028;BME280;74111;45.650;25.612;2024-03-23T13:03:49;94364.89;;;33.99;13.47
84028;BME280;74111;45.650;25.612;2024-03-23T13:06:18;94365.71;;;34.29;12.53
84028;BME280;74111;45.650;25.612;2024-03-23T13:08:46;94359.05;;;34.20;11.99
84028;BME280;74111;45.650;25.612;2024-03-23T13:11:15;94350.90;;;34.06;12.04
84028;BME280;74111;45.650;25.612;2024-03-23T13:13:43;94348.21;;;34.05;12.44
84028;BME280;74111;45.650;25.612;2024-03-23T13:16:12;94349.27;;;34.17;12.25
84028;BME280;74111;45.650;25.612;2024-03-23T13:18:41;94343.41;;;34.27;12.85
84028;BME280;74111;45.650;25.612;2024-03-23T13:21:10;94341.27;;;34.22;12.07
84028;BME280;74111;45.650;25.612;2024-03-23T13:23:38;94342.52;;;34.27;12.65
84028;BME280;74111;45.650;25.612;2024-03-23T13:26:10;94333.41;;;33.99;11.40
84028;BME280;74111;45.650;25.612;2024-03-23T13:28:43;94327.96;;;33.57;11.70
84028;BME280;74111;45.650;25.612;2024-03-23T13:31:13;94323.89;;;33.40;12.45
84028;BME280;74111;45.650;25.612;2024-03-23T13:33:41;94320.90;;;33.32;12.13
84028;BME280;74111;45.650;25.612;2024-03-23T13:36:12;94316.63;;;33.15;12.38
84028;BME280;74111;45.650;25.612;2024-03-23T13:38:41;94313.61;;;33.15;12.48
84028;BME280;74111;45.650;25.612;2024-03-23T13:41:10;94308.50;;;32.56;12.42
84028;BME280;74111;45.650;25.612;2024-03-23T13:43:40;94303.38;;;32.57;12.97
84028;BME280;74111;45.650;25.612;2024-03-23T13:46:09;94303.67;;;32.83;13.47
84028;BME280;74111;45.650;25.612;2024-03-23T13:48:37;94298.11;;;33.04;12.76
84028;BME280;74111;45.650;25.612;2024-03-23T13:51:05;94291.79;;;32.81;12.24
84028;BME280;74111;45.650;25.612;2024-03-23T13:53:37;94288.83;;;32.42;12.60
84028;BME280;74111;45.650;25.612;2024-03-23T13:56:06;94283.65;;;32.17;13.21
84028;BME280;74111;45.650;25.612;2024-03-23T13:58:34;94275.07;;;31.73;12.78
84028;BME280;74111;45.650;25.612;2024-03-23T14:01:03;94273.33;;;31.65;13.85
84028;BME280;74111;45.650;25.612;2024-03-23T14:03:33;94270.09;;;31.80;13.65
84028;BME280;74111;45.650;25.612;2024-03-23T14:06:02;94267.75;;;31.83;13.83